Time;durP1;ratioP1;P1;durP2;ratioP2;P2;SDS_P1;SDS_P2;PMS_P1;PMS_P2;Temp;Humidity;BMP_temperature;BMP_pressure;BME280_temperature;BME280_humidity;BME280_pressure;Samples;Min_cycle;Max_cycle;Signal;HPM_P1;HPM_P2
2022/08/19 00:01:36;;;;;;;4.82;4.22;;;;;;;18.37;100.00;90832.88;5011366;28;20111;-69
2022/08/19 00:04:05;;;;;;;4.22;3.78;;;;;;;18.37;100.00;90843.66;5011258;28;20037;-69
2022/08/19 00:06:31;;;;;;;4.45;3.95;;;;;;;18.38;100.00;90829.03;5010997;28;20121;-69
2022/08/19 00:08:57;;;;;;;4.25;3.63;;;;;;;18.33;100.00;90826.66;5011639;28;20123;-69
2022/08/19 00:11:25;;;;;;;3.45;3.15;;;;;;;18.25;100.00;90820.34;5011145;28;20014;-69
2022/08/19 00:13:50;;;;;;;4.13;3.60;;;;;;;18.27;100.00;90818.06;5011141;28;20026;-69
2022/08/19 00:16:20;;;;;;;3.60;3.22;;;;;;;18.30;100.00;90827.34;5011265;28;20113;-69
2022/08/19 00:18:47;;;;;;;3.55;3.25;;;;;;;18.33;100.00;90836.66;5011286;28;20109;-69
2022/08/19 00:21:13;;;;;;;3.85;3.45;;;;;;;18.28;100.00;90835.00;5011168;28;20030;-69
2022/08/19 00:23:38;;;;;;;4.00;3.60;;;;;;;18.31;100.00;90833.53;5011015;28;20034;-69
2022/08/19 00:26:05;;;;;;;3.92;3.60;;;;;;;18.26;100.00;90834.59;5011240;28;20113;-69
2022/08/19 00:28:31;;;;;;;4.32;3.63;;;;;;;18.19;100.00;90831.78;5011295;28;20038;-70
2022/08/19 00:30:57;;;;;;;6.05;3.80;;;;;;;18.12;100.00;90828.94;5011150;28;20411;-69
2022/08/19 00:33:22;;;;;;;3.92;3.35;;;;;;;18.08;100.00;90826.19;5009827;28;20033;-69
2022/08/19 00:35:48;;;;;;;4.78;4.13;;;;;;;18.14;100.00;90830.13;5011136;28;20029;-69
2022/08/19 00:38:14;;;;;;;4.45;3.53;;;;;;;18.14;100.00;90830.13;5011105;28;20044;-70
2022/08/19 00:40:40;;;;;;;4.53;3.63;;;;;;;18.13;100.00;90833.97;5011116;28;20038;-70
2022/08/19 00:43:12;;;;;;;4.30;3.60;;;;;;;18.06;100.00;90830.38;5011055;28;20412;-70
2022/08/19 00:45:41;;;;;;;5.20;4.65;;;;;;;17.92;100.00;90826.28;5011311;28;20030;-70
2022/08/19 00:48:07;;;;;;;4.45;3.80;;;;;;;17.93;100.00;90829.75;5011263;28;20038;-69
2022/08/19 00:50:34;;;;;;;4.68;3.67;;;;;;;17.91;100.00;90837.41;5009646;28;20030;-70
2022/08/19 00:53:03;;;;;;;6.80;4.13;;;;;;;17.88;100.00;90835.41;5010867;28;20571;-70
2022/08/19 00:55:32;;;;;;;4.75;3.80;;;;;;;17.82;100.00;90834.91;5010979;28;20424;-70
2022/08/19 00:58:11;;;;;;;3.75;3.40;;;;;;;17.80;100.00;90839.09;5010961;28;20042;-70
2022/08/19 01:00:38;;;;;;;4.50;3.90;;;;;;;17.82;100.00;90844.88;5011586;28;20049;-70
2022/08/19 01:03:10;;;;;;;4.97;3.80;;;;;;;17.80;100.00;90845.25;5014402;28;20062;-69
2022/08/19 01:05:37;;;;;;;4.33;3.77;;;;;;;17.74;100.00;90840.50;5014325;28;20077;-70
2022/08/19 01:08:05;;;;;;;8.27;4.55;;;;;;;17.80;100.00;90841.78;5014334;28;20492;-70
2022/08/19 01:10:39;;;;;;;4.45;3.78;;;;;;;17.79;100.00;90846.38;5014310;28;20099;-70
2022/08/19 01:13:04;;;;;;;5.22;3.95;;;;;;;17.80;100.00;90847.16;5014079;28;20056;-70
2022/08/19 01:15:34;;;;;;;5.07;3.97;;;;;;;17.83;100.00;90833.00;5014188;28;20484;-70
2022/08/19 01:18:07;;;;;;;4.07;3.53;;;;;;;17.88;100.00;90838.88;5014140;28;20045;-69
2022/08/19 01:20:34;;;;;;;5.68;4.28;;;;;;;17.92;100.00;90839.72;5014092;28;20025;-70
2022/08/19 01:23:00;;;;;;;3.97;3.13;;;;;;;18.02;100.00;90845.69;5013947;28;20037;-70
2022/08/19 01:25:45;;;;;;;4.63;3.53;;;;;;;18.03;100.00;90839.94;5014028;28;20107;-69
2022/08/19 01:28:28;;;;;;;4.88;3.88;;;;;;;17.92;100.00;90841.66;5013945;28;20088;-69
2022/08/19 01:30:54;;;;;;;4.37;3.87;;;;;;;17.82;100.00;90839.50;5013940;28;20072;-69
2022/08/19 01:33:21;;;;;;;4.22;3.40;;;;;;;17.73;100.00;90837.06;5013649;28;20113;-70
2022/08/19 01:35:50;;;;;;;5.75;3.75;;;;;;;17.73;100.00;90836.28;5013804;28;20415;-70
2022/08/19 01:38:24;;;;;;;4.45;3.70;;;;;;;17.72;100.00;90834.72;5013661;28;20026;-70
2022/08/19 01:40:50;;;;;;;4.70;3.92;;;;;;;17.73;100.00;90836.28;5013660;28;20514;-69
2022/08/19 01:43:15;;;;;;;6.20;3.70;;;;;;;17.70;100.00;90827.00;5013574;28;20026;-69
2022/08/19 01:45:41;;;;;;;4.22;3.83;;;;;;;17.76;100.00;90836.34;5013639;28;20029;-69
2022/08/19 01:48:08;;;;;;;4.47;3.30;;;;;;;17.83;100.00;90827.63;5013584;28;20030;-69
2022/08/19 01:50:35;;;;;;;5.13;3.88;;;;;;;17.83;100.00;90827.63;5013472;28;20045;-69
2022/08/19 01:53:04;;;;;;;3.80;3.40;;;;;;;17.79;100.00;90827.53;5013203;28;20072;-70
2022/08/19 01:55:30;;;;;;;5.82;3.83;;;;;;;17.82;100.00;90828.75;5013178;28;20048;-69
2022/08/19 01:57:59;;;;;;;5.05;4.20;;;;;;;17.81;100.00;90832.56;5013341;28;20034;-69
2022/08/19 02:00:29;;;;;;;4.20;3.80;;;;;;;17.91;100.00;90826.63;5013164;28;20034;-69
2022/08/19 02:02:55;;;;;;;4.45;3.40;;;;;;;17.92;100.00;90823.59;5013074;28;20034;-69
2022/08/19 02:05:21;;;;;;;5.07;3.95;;;;;;;17.94;100.00;90824.00;5158436;23;20065;-70
2022/08/19 02:07:47;;;;;;;5.60;3.72;;;;;;;17.94;100.00;90831.28;5013116;28;20124;-70
2022/08/19 02:10:16;;;;;;;4.30;3.13;;;;;;;17.91;100.00;90827.41;5013120;28;20084;-69
2022/08/19 02:12:43;;;;;;;6.97;3.88;;;;;;;17.90;100.00;90820.47;5013087;28;20108;-69
2022/08/19 02:15:09;;;;;;;4.45;3.45;;;;;;;17.86;100.00;90826.94;5012971;28;20041;-70
2022/08/19 02:17:34;;;;;;;5.40;3.33;;;;;;;17.85;100.00;90825.38;5013003;28;20030;-70
2022/08/19 02:20:00;;;;;;;5.32;3.75;;;;;;;17.81;100.00;90825.28;5012855;28;20096;-70
2022/08/19 02:22:26;;;;;;;4.78;3.42;;;;;;;17.79;100.00;90829.47;5012826;28;20544;-70
2022/08/19 02:24:55;;;;;;;3.70;3.40;;;;;;;17.71;100.00;90833.16;5012686;28;20029;-70
2022/08/19 02:27:22;;;;;;;5.47;4.40;;;;;;;17.67;100.00;90828.47;5012741;28;20026;-70
2022/08/19 02:29:49;;;;;;;4.22;3.67;;;;;;;17.64;100.00;90831.84;5012699;28;20034;-69
2022/08/19 02:32:16;;;;;;;4.32;3.65;;;;;;;17.63;100.00;90826.81;5012604;28;20105;-70
2022/08/19 02:34:42;;;;;;;4.57;3.80;;;;;;;17.57;100.00;90834.41;5012553;28;20037;-70
2022/08/19 02:38:24;;;;;;;4.28;3.88;;;;;;;17.55;100.00;90827.81;5012609;28;20034;-70
2022/08/19 02:39:53;;;;;;;6.22;4.55;;;;;;;17.48;100.00;90827.66;5012479;28;20034;-70
2022/08/19 02:42:18;;;;;;;4.28;3.88;;;;;;;17.46;100.00;90833.38;5012440;28;20026;-70
2022/08/19 02:44:44;;;;;;;6.32;4.30;;;;;;;17.40;100.00;90834.81;5012359;28;20068;-70
2022/08/19 02:47:10;;;;;;;5.03;4.05;;;;;;;17.35;100.00;90838.53;5012435;28;20040;-70
2022/08/19 02:49:35;;;;;;;4.80;4.22;;;;;;;17.31;100.00;90837.69;5012361;28;20037;-70
2022/08/19 02:52:02;;;;;;;5.07;3.92;;;;;;;17.33;100.00;90843.47;5012185;28;20026;-70
2022/08/19 02:54:28;;;;;;;4.55;3.90;;;;;;;17.32;100.00;90841.13;5010855;28;20103;-70
2022/08/19 02:56:53;;;;;;;4.18;3.78;;;;;;;17.34;100.00;90844.25;5012226;28;20092;-70
2022/08/19 02:59:19;;;;;;;4.43;3.78;;;;;;;17.32;100.00;90846.53;5012148;28;20042;-70
2022/08/19 03:01:45;;;;;;;6.20;3.70;;;;;;;17.33;100.00;90842.69;5012137;28;20036;-70
2022/08/19 03:04:13;;;;;;;4.38;3.95;;;;;;;17.33;100.00;90843.47;5012030;28;20033;-70
2022/08/19 03:06:41;;;;;;;6.20;3.70;;;;;;;17.30;100.00;90846.09;5011754;28;20439;-70
2022/08/19 03:09:07;;;;;;;7.05;4.00;;;;;;;17.29;100.00;90839.94;5012032;28;20091;-70
2022/08/19 03:11:33;;;;;;;4.10;3.47;;;;;;;17.25;100.00;90841.00;5011930;28;20025;-70
2022/08/19 03:14:00;;;;;;;4.65;3.90;;;;;;;17.20;100.00;90841.25;5011967;28;20046;-70
2022/08/19 03:16:28;;;;;;;4.72;3.78;;;;;;;17.23;100.00;90846.72;5011343;28;20136;-70
2022/08/19 03:18:58;;;;;;;4.50;3.78;;;;;;;17.19;100.00;90835.09;5012200;28;20507;-70
2022/08/19 03:21:26;;;;;;;5.35;3.78;;;;;;;17.20;100.00;90841.25;5011941;28;20033;-70
2022/08/19 03:24:00;;;;;;;5.13;4.05;;;;;;;17.23;100.00;90846.72;5011272;28;20029;-70
2022/08/19 03:26:26;;;;;;;4.50;3.60;;;;;;;17.29;100.00;90848.00;5011680;28;20245;-70
2022/08/19 03:28:52;;;;;;;4.20;3.60;;;;;;;17.30;100.00;90838.03;5011741;28;20034;-70
2022/08/19 03:31:25;;;;;;;4.32;3.60;;;;;;;17.32;100.00;90841.91;5011550;28;20032;-70
2022/08/19 03:33:51;;;;;;;5.00;3.95;;;;;;;17.42;100.00;90851.34;5011661;28;20026;-70
2022/08/19 03:36:21;;;;;;;4.53;4.00;;;;;;;17.42;100.00;90843.28;5011480;28;20061;-70
2022/08/19 03:38:54;;;;;;;5.20;3.80;;;;;;;17.45;100.00;90842.59;5011573;28;20037;-70
2022/08/19 03:41:22;;;;;;;4.10;3.70;;;;;;;17.42;100.00;90837.91;5011539;28;20120;-70
2022/08/19 03:43:48;;;;;;;4.40;3.78;;;;;;;17.41;100.00;90835.56;5011425;28;20034;-70
2022/08/19 03:46:16;;;;;;;4.25;3.30;;;;;;;17.44;100.00;90849.09;5011376;28;20108;-70
2022/08/19 03:48:43;;;;;;;6.15;3.97;;;;;;;17.44;100.00;90843.72;5011491;28;20503;-70
2022/08/19 03:51:30;;;;;;;4.97;3.97;;;;;;;17.53;100.00;90846.22;5011599;28;20038;-70
2022/08/19 03:53:58;;;;;;;4.40;3.67;;;;;;;17.44;100.00;90843.72;5011393;28;20033;-70
2022/08/19 03:56:25;;;;;;;3.97;3.58;;;;;;;17.50;100.00;90855.75;5011239;28;20037;-70
2022/08/19 03:58:52;;;;;;;5.15;4.05;;;;;;;17.53;100.00;90859.66;5011385;28;20025;-70
2022/08/19 04:01:21;;;;;;;7.05;5.10;;;;;;;17.51;100.00;90857.31;5011346;28;20088;-71
2022/08/19 04:03:48;;;;;;;5.47;3.72;;;;;;;17.58;100.00;90862.84;5011260;28;20113;-70
2022/08/19 04:06:18;;;;;;;4.57;3.75;;;;;;;17.62;100.00;90861.00;5010972;28;20046;-71
2022/08/19 04:08:45;;;;;;;6.05;4.13;;;;;;;17.66;100.00;90861.06;5011355;28;20038;-70
2022/08/19 04:11:15;;;;;;;8.80;3.83;;;;;;;17.72;100.00;90864.31;5011310;28;20053;-70
2022/08/19 04:13:43;;;;;;;4.72;4.03;;;;;;;17.78;100.00;90866.34;5011571;28;20088;-70
2022/08/19 04:16:09;;;;;;;4.32;3.70;;;;;;;17.80;100.00;90852.53;5011219;28;20025;-70
2022/08/19 04:18:37;;;;;;;4.18;3.78;;;;;;;17.91;100.00;90865.09;5011202;28;20033;-71
2022/08/19 04:21:04;;;;;;;4.35;3.95;;;;;;;17.88;100.00;90870.41;5011159;28;20026;-71
2022/08/19 04:23:29;;;;;;;6.22;4.35;;;;;;;17.96;100.00;90872.88;5011210;28;20034;-71
2022/08/19 04:25:55;;;;;;;4.07;3.58;;;;;;;18.04;100.00;90870.34;5011072;28;20029;-71
2022/08/19 04:28:21;;;;;;;4.78;3.78;;;;;;;18.14;100.00;90861.66;5011187;28;20075;-71
2022/08/19 04:30:49;;;;;;;4.40;3.58;;;;;;;18.19;100.00;90864.88;5011128;28;20026;-71
2022/08/19 04:33:18;;;;;;;4.68;3.80;;;;;;;18.24;100.00;90856.50;5011137;28;20033;-71
2022/08/19 04:35:46;;;;;;;7.30;3.58;;;;;;;18.37;100.00;90878.66;5011622;28;20539;-71
2022/08/19 04:38:12;;;;;;;11.32;5.88;;;;;;;18.46;100.00;90864.94;5014910;28;20108;-71
2022/08/19 04:43:27;;;;;;;4.95;4.40;;;;;;;18.65;100.00;90866.88;5014975;28;20033;-71
2022/08/19 04:45:53;;;;;;;5.88;4.28;;;;;;;18.75;100.00;90866.25;5014624;28;20407;-71
2022/08/19 04:48:25;;;;;;;4.65;3.78;;;;;;;18.70;100.00;90858.47;5014711;28;20598;-71
2022/08/19 04:50:58;;;;;;;5.82;4.20;;;;;;;18.82;100.00;90855.63;5014678;28;20033;-71
2022/08/19 04:53:30;;;;;;;4.43;3.60;;;;;;;19.43;97.47;90860.00;5014885;28;20072;-71
2022/08/19 04:55:57;;;;;;;4.30;3.47;;;;;;;20.75;84.32;90850.81;5014466;28;20116;-71
2022/08/19 04:58:27;;;;;;;3.83;3.42;;;;;;;21.76;75.53;90853.91;5014533;28;20022;-71
2022/08/19 05:00:52;;;;;;;4.93;3.58;;;;;;;22.13;72.61;90859.16;5014508;28;20032;-71
2022/08/19 05:03:19;;;;;;;5.00;3.35;;;;;;;22.82;67.88;90858.19;5014440;28;20034;-71
2022/08/19 05:05:48;;;;;;;5.30;3.95;;;;;;;23.38;65.51;90871.06;5014146;28;20140;-71
2022/08/19 05:08:19;;;;;;;5.18;3.95;;;;;;;24.23;62.61;90863.94;5014242;28;20033;-71
2022/08/19 05:10:49;;;;;;;5.65;3.80;;;;;;;25.63;57.92;90866.28;5014404;28;20038;-71
2022/08/19 05:13:16;;;;;;;4.30;3.72;;;;;;;25.16;58.03;90867.81;5014262;28;20029;-71
2022/08/19 05:15:43;;;;;;;4.25;3.38;;;;;;;25.93;56.38;90871.09;5014180;28;20133;-71
2022/08/19 05:23:38;;;;;;;10.85;5.40;;;;;;;27.41;51.12;90871.63;5014266;28;20036;-71
2022/08/19 05:26:03;;;;;;;3.60;3.30;;;;;;;27.90;49.93;90875.56;5014013;28;20022;-71
2022/08/19 05:28:29;;;;;;;4.18;3.70;;;;;;;28.22;49.35;90882.44;5014225;28;20056;-69
2022/08/19 05:30:55;;;;;;;4.25;3.63;;;;;;;28.44;48.96;90888.31;5012636;28;20071;-69
2022/08/19 05:33:21;;;;;;;4.88;3.20;;;;;;;29.45;46.79;90867.44;5013816;28;20037;-71
2022/08/19 05:35:49;;;;;;;4.22;3.33;;;;;;;29.77;46.02;90874.16;5013746;28;20065;-71
2022/08/19 05:38:15;;;;;;;4.10;3.70;;;;;;;29.68;46.38;90877.50;5013816;28;20091;-71
2022/08/19 05:40:45;;;;;;;3.63;3.25;;;;;;;30.77;44.33;90882.59;5013764;28;20030;-71
2022/08/19 05:43:11;;;;;;;3.92;3.50;;;;;;;31.11;43.31;90876.56;5012355;28;20549;-72
2022/08/19 05:45:41;;;;;;;5.63;3.90;;;;;;;31.67;42.46;90874.06;5013621;28;20116;-72
2022/08/19 05:48:10;;;;;;;3.33;2.92;;;;;;;32.27;41.36;90868.66;5013113;28;20120;-72
2022/08/19 05:50:37;;;;;;;3.83;3.20;;;;;;;31.71;42.56;90869.22;5013579;28;20109;-72
2022/08/19 05:53:03;;;;;;;3.28;2.97;;;;;;;32.19;41.78;90870.06;5013364;28;20407;-70
2022/08/19 05:55:28;;;;;;;4.00;3.60;;;;;;;33.02;40.09;90877.84;5013348;28;20030;-70
2022/08/19 05:57:54;;;;;;;4.25;3.67;;;;;;;34.05;38.33;90872.38;5013335;28;20033;-70
2022/08/19 06:00:19;;;;;;;4.13;3.65;;;;;;;34.43;37.88;90869.28;5013315;28;20380;-70
2022/08/19 06:02:45;;;;;;;3.90;3.40;;;;;;;33.20;38.78;90868.16;5013264;28;20026;-70
2022/08/19 06:05:10;;;;;;;3.60;3.22;;;;;;;33.17;39.14;90880.09;5013076;28;20045;-70
2022/08/19 06:07:37;;;;;;;4.82;3.97;;;;;;;34.60;37.43;90878.81;5013251;28;20083;-70
2022/08/19 06:10:06;;;;;;;5.18;3.20;;;;;;;34.61;37.72;90885.09;5013186;28;20458;-70
2022/08/19 06:12:34;;;;;;;3.95;3.50;;;;;;;35.92;36.73;90882.03;5013022;28;20056;-70
2022/08/19 06:15:07;;;;;;;4.55;3.85;;;;;;;36.49;34.92;90876.50;5012984;28;20487;-70
2022/08/19 06:17:34;;;;;;;3.95;3.47;;;;;;;36.59;35.35;90874.44;5012998;28;20026;-70
2022/08/19 06:20:00;;;;;;;4.47;4.05;;;;;;;38.43;33.19;90881.75;5013281;28;20069;-70
2022/08/19 06:22:26;;;;;;;4.15;3.75;;;;;;;39.85;32.41;90878.06;5012934;28;20104;-70
2022/08/19 06:24:53;;;;;;;4.95;4.25;;;;;;;41.85;30.28;90889.53;5012796;28;20080;-70
2022/08/19 06:27:20;;;;;;;7.45;3.90;;;;;;;41.93;30.06;90889.03;5012685;28;20026;-70
2022/08/19 06:29:46;;;;;;;4.18;3.70;;;;;;;43.44;29.01;90900.75;5012620;28;20030;-70
2022/08/19 06:32:14;;;;;;;4.85;3.47;;;;;;;43.90;27.88;90891.59;5012875;28;20022;-70
2022/08/19 06:34:40;;;;;;;4.90;3.83;;;;;;;45.05;26.34;90897.25;5012646;28;20478;-70
2022/08/19 06:37:06;;;;;;;30.83;22.33;;;;;;;44.60;27.19;90894.88;5012665;28;21003;-70
2022/08/19 06:39:35;;;;;;;10.60;9.27;;;;;;;43.63;28.07;90895.31;5012397;28;20038;-70
2022/08/19 06:42:03;;;;;;;5.35;4.43;;;;;;;43.90;27.25;90893.63;5012477;28;20026;-70
2022/08/19 06:44:34;;;;;;;16.08;10.15;;;;;;;44.40;27.50;90901.66;5012245;28;20419;-70
2022/08/19 06:47:02;;;;;;;5.57;4.82;;;;;;;44.24;27.53;90885.75;5012475;28;20091;-70
2022/08/19 06:49:30;;;;;;;4.70;4.30;;;;;;;44.60;26.40;90894.88;5012439;28;20084;-70
2022/08/19 06:51:57;;;;;;;6.03;4.43;;;;;;;46.07;25.38;90894.69;5012156;28;20030;-70
2022/08/19 06:54:23;;;;;;;5.40;4.35;;;;;;;46.91;24.75;90891.28;5012082;28;20091;-70
2022/08/19 06:56:48;;;;;;;5.60;3.97;;;;;;;47.36;24.03;90896.06;5012366;28;20025;-70
2022/08/19 06:59:18;;;;;;;3.70;3.40;;;;;;;47.84;23.30;90894.06;5011636;28;20053;-70
2022/08/19 07:01:49;;;;;;;4.20;3.80;;;;;;;47.00;22.74;90896.47;5012253;28;20056;-70
2022/08/19 07:04:17;;;;;;;4.60;4.20;;;;;;;45.66;24.64;90895.78;5011994;28;20040;-70
2022/08/19 07:06:43;;;;;;;10.05;4.50;;;;;;;45.67;24.46;90898.06;5011945;28;20046;-70
2022/08/19 07:09:13;;;;;;;4.10;3.70;;;;;;;46.91;23.16;90885.66;5012603;28;20049;-70
2022/08/19 07:11:38;;;;;;;3.58;3.28;;;;;;;47.46;23.24;90894.31;5011958;28;20125;-70
2022/08/19 07:14:05;;;;;;;4.63;3.50;;;;;;;46.40;23.44;90888.56;5012115;28;20125;-70
2022/08/19 07:16:31;;;;;;;4.30;3.63;;;;;;;47.04;23.04;90888.47;5011807;28;20041;-70
2022/08/19 07:18:57;;;;;;;8.93;7.70;;;;;;;47.26;23.48;90892.16;5010570;28;20042;-70
2022/08/19 07:21:30;;;;;;;7.30;5.68;;;;;;;44.85;24.46;90892.09;5011880;28;20041;-70
2022/08/19 07:23:58;;;;;;;4.65;4.18;;;;;;;45.25;24.44;90879.88;5011653;28;20080;-70
2022/08/19 07:26:27;;;;;;;5.80;5.13;;;;;;;47.67;22.72;90891.63;5010518;28;20041;-70
2022/08/19 07:28:53;;;;;;;3.70;3.30;;;;;;;47.57;22.10;90891.28;5011823;28;20073;-70
2022/08/19 07:31:21;;;;;;;2.72;2.50;;;;;;;47.21;21.93;90895.88;5011752;28;20049;-70
2022/08/19 07:33:50;;;;;;;2.90;2.70;;;;;;;44.85;23.03;90892.09;5011472;28;20057;-70
2022/08/19 07:36:18;;;;;;;3.53;2.80;;;;;;;42.95;24.50;90894.06;5011623;28;20057;-70
2022/08/19 07:38:47;;;;;;;3.20;2.90;;;;;;;43.59;24.65;90900.44;5011809;28;20431;-70
2022/08/19 07:41:15;;;;;;;6.18;4.70;;;;;;;45.52;23.17;90889.28;5011649;28;20068;-71
2022/08/19 07:43:43;;;;;;;9.93;6.95;;;;;;;46.01;23.79;90902.44;5011472;28;20045;-71
2022/08/19 07:46:09;;;;;;;5.57;3.80;;;;;;;44.94;23.25;90898.13;5011435;28;20146;-71
2022/08/19 07:48:34;;;;;;;3.30;2.95;;;;;;;45.96;23.26;90898.41;5011312;28;20046;-71
2022/08/19 07:51:03;;;;;;;3.67;2.70;;;;;;;47.97;21.08;90899.66;5011707;28;20045;-71
2022/08/19 07:53:30;;;;;;;7.35;3.10;;;;;;;46.90;21.66;90895.41;5011378;28;20045;-71
2022/08/19 07:56:03;;;;;;;2.78;2.58;;;;;;;46.12;23.50;90896.69;5011312;28;20038;-71
2022/08/19 07:58:30;;;;;;;3.15;2.78;;;;;;;43.63;23.29;90904.47;5011445;28;20042;-70
2022/08/19 08:00:55;;;;;;;4.93;3.05;;;;;;;44.95;23.68;90899.66;5011387;28;20077;-70
2022/08/19 08:09:10;;;;;;;3.92;3.00;;;;;;;44.62;24.42;90900.72;5011376;28;20070;-71
2022/08/19 08:09:10;;;;;;;3.70;3.40;;;;;;;43.93;23.52;90890.53;5011667;28;20475;-70
2022/08/19 08:11:56;;;;;;;3.05;2.70;;;;;;;43.22;24.49;90900.81;5015016;28;20057;-70
2022/08/19 08:14:35;;;;;;;4.35;2.72;;;;;;;46.43;21.62;90892.38;5015289;28;20474;-70
2022/08/19 08:17:02;;;;;;;3.90;3.10;;;;;;;47.49;21.30;90895.28;5015335;28;20042;-70
2022/08/19 08:19:28;;;;;;;3.13;2.83;;;;;;;47.01;21.34;90881.09;5015302;28;20037;-70
2022/08/19 08:21:56;;;;;;;3.85;3.15;;;;;;;46.05;21.63;90894.47;5015262;28;20034;-71
2022/08/19 08:24:22;;;;;;;3.55;3.20;;;;;;;42.84;24.24;90894.06;5015110;28;20041;-69
2022/08/19 08:26:48;;;;;;;3.00;2.80;;;;;;;42.07;24.13;90885.22;5015189;28;20458;-70
2022/08/19 08:29:15;;;;;;;3.35;2.60;;;;;;;42.62;24.49;90878.88;5015055;28;20037;-69
2022/08/19 08:31:42;;;;;;;2.95;2.58;;;;;;;43.14;23.84;90880.25;5015012;28;20042;-67
2022/08/19 08:34:09;;;;;;;3.25;2.83;;;;;;;42.81;24.87;90883.91;5014958;28;20077;-68
2022/08/19 08:36:45;;;;;;;3.67;2.58;;;;;;;43.07;24.34;90878.72;5014841;28;20068;-69
2022/08/19 08:39:13;;;;;;;3.25;2.95;;;;;;;45.34;23.21;90876.75;5014947;28;20042;-70
2022/08/19 08:42:05;;;;;;;3.60;2.75;;;;;;;45.86;22.31;90878.34;5014895;28;20084;-70
2022/08/19 08:44:36;;;;;;;2.72;2.53;;;;;;;42.26;24.85;90886.25;5014695;28;20117;-70
2022/08/19 08:47:04;;;;;;;3.60;3.08;;;;;;;44.00;23.75;90872.38;5014648;28;20522;-70
2022/08/19 08:49:33;;;;;;;3.70;2.90;;;;;;;44.43;23.79;90877.41;5014747;28;20052;-70
2022/08/19 08:52:10;;;;;;;6.35;4.32;;;;;;;43.91;24.09;90875.53;5014625;28;20072;-70
2022/08/19 08:54:58;;;;;;;3.80;3.22;;;;;;;42.26;25.24;90871.50;5014487;28;20041;-70
2022/08/19 08:57:39;;;;;;;4.47;3.42;;;;;;;42.55;25.23;90867.44;5014483;28;20056;-69
2022/08/19 09:00:09;;;;;;;4.38;3.45;;;;;;;43.01;24.80;90864.75;5014565;28;20053;-69
2022/08/19 09:02:34;;;;;;;3.13;2.83;;;;;;;43.43;24.62;90854.41;5014351;28;20054;-69
2022/08/19 09:05:21;;;;;;;2.70;2.50;;;;;;;44.26;24.79;90860.75;5012777;28;20141;-70
2022/08/19 09:08:06;;;;;;;3.25;2.92;;;;;;;44.58;23.95;90857.41;5014414;28;20041;-70
2022/08/19 09:10:38;;;;;;;2.55;2.35;;;;;;;44.49;25.91;90855.69;5014310;28;20475;-70
2022/08/19 09:13:16;;;;;;;;;;;;;;;43.96;25.10;90849.50;5014678;28;20073;-70
2022/08/19 09:16:05;;;;;;;3.33;2.60;;;;;;;44.98;23.41;90852.94;5014028;28;20412;-70
2022/08/19 09:18:57;;;;;;;2.55;2.33;;;;;;;45.75;23.07;90847.59;5014014;28;20092;-70
2022/08/19 09:21:25;;;;;;;2.95;2.47;;;;;;;46.23;22.29;90849.41;5013053;28;20069;-70
2022/08/19 09:23:51;;;;;;;4.60;3.10;;;;;;;45.06;22.14;90857.41;5013872;28;20119;-70
2022/08/19 09:26:20;;;;;;;3.38;2.65;;;;;;;44.73;23.70;90854.94;5012616;28;20037;-70
2022/08/19 09:28:47;;;;;;;5.15;2.53;;;;;;;46.86;22.66;90858.31;5013881;28;20069;-70
2022/08/19 09:31:22;;;;;;;3.30;2.00;;;;;;;45.87;22.85;90848.94;5013957;28;20100;-70
2022/08/19 09:33:49;;;;;;;2.53;2.33;;;;;;;46.30;22.38;90850.09;5013847;28;20038;-70
2022/08/19 09:36:18;;;;;;;2.70;2.50;;;;;;;45.65;21.87;90849.28;5013807;28;20117;-70
2022/08/19 09:38:44;;;;;;;4.82;3.38;;;;;;;44.49;22.76;90847.28;5013889;28;20038;-69
2022/08/19 09:41:16;;;;;;;4.93;2.75;;;;;;;43.78;23.53;90850.13;5013788;28;20392;-70
2022/08/19 09:43:43;;;;;;;2.17;2.03;;;;;;;45.91;21.37;90849.38;5013677;28;20113;-70
2022/08/19 09:46:09;;;;;;;2.30;2.10;;;;;;;44.22;22.34;90835.78;5013653;28;20415;-70
2022/08/19 09:48:42;;;;;;;5.47;2.40;;;;;;;42.42;23.29;90842.75;5013564;28;20040;-69
2022/08/19 09:51:15;;;;;;;2.40;2.20;;;;;;;41.92;23.68;90840.00;5013791;28;20049;-69
2022/08/19 09:53:42;;;;;;;2.35;2.15;;;;;;;42.68;23.57;90831.28;5013395;28;20036;-70
2022/08/19 09:56:07;;;;;;;3.17;2.88;;;;;;;43.89;22.67;90833.25;5013403;28;20427;-69
2022/08/19 09:58:34;;;;;;;10.75;2.50;;;;;;;44.68;21.83;90836.91;5013359;28;20038;-70
2022/08/19 10:01:01;;;;;;;5.22;2.28;;;;;;;45.30;21.02;90836.97;5013262;28;20514;-70
2022/08/19 10:03:29;;;;;;;8.30;2.80;;;;;;;44.65;21.77;90832.31;5013296;28;20042;-70
2022/08/19 10:05:55;;;;;;;3.22;2.92;;;;;;;42.75;22.42;90825.91;5013239;28;20046;-70
2022/08/19 10:08:39;;;;;;;2.45;2.25;;;;;;;44.05;21.49;90829.53;5013211;28;20042;-69
2022/08/19 10:11:05;;;;;;;4.18;2.40;;;;;;;44.37;20.68;90820.63;5013439;28;20041;-69
2022/08/19 10:13:32;;;;;;;3.38;2.22;;;;;;;46.71;19.77;90832.72;5012918;28;20534;-71
2022/08/19 10:16:08;;;;;;;9.82;7.05;;;;;;;43.64;22.20;90816.31;5013146;28;20050;-70
2022/08/19 10:18:35;;;;;;;5.78;5.00;;;;;;;44.37;22.19;90821.38;5013032;28;20038;-69
2022/08/19 10:21:08;;;;;;;2.97;2.70;;;;;;;44.52;22.58;90814.63;5013013;28;20116;-70
2022/08/19 10:23:34;;;;;;;2.35;2.15;;;;;;;42.17;23.88;90822.22;5013081;28;20105;-70
2022/08/19 10:26:00;;;;;;;3.22;2.92;;;;;;;42.67;23.74;90818.56;5012827;28;20081;-70
2022/08/19 10:28:26;;;;;;;5.05;3.50;;;;;;;43.14;23.64;90821.44;5012759;28;20033;-70
2022/08/19 10:30:52;;;;;;;3.17;2.65;;;;;;;43.57;23.32;90810.53;5012736;28;20092;-70
2022/08/19 10:33:17;;;;;;;3.20;2.90;;;;;;;42.61;23.34;90812.22;5012614;28;20046;-69
2022/08/19 10:35:44;;;;;;;3.22;2.45;;;;;;;43.24;23.17;90806.63;5012664;28;20052;-70
2022/08/19 10:38:09;;;;;;;3.08;2.70;;;;;;;43.40;22.52;90809.84;5012867;28;20037;-70
2022/08/19 10:40:35;;;;;;;4.25;2.70;;;;;;;42.87;23.68;90809.81;5012728;28;20568;-69
2022/08/19 10:43:00;;;;;;;3.28;2.47;;;;;;;43.11;23.42;90800.84;5012610;28;20068;-69
2022/08/19 10:45:26;;;;;;;3.38;3.08;;;;;;;41.88;23.69;90807.47;5012461;28;20046;-69
2022/08/19 10:47:55;;;;;;;6.03;2.67;;;;;;;41.76;23.93;90805.94;5012561;28;20033;-69
2022/08/19 10:53:08;;;;;;;3.45;2.80;;;;;;;41.83;24.14;90813.84;5012378;28;20415;-69
2022/08/19 10:58:23;;;;;;;3.13;2.45;;;;;;;42.45;24.24;90810.97;5012523;28;20096;-70
2022/08/19 11:00:56;;;;;;;3.40;2.85;;;;;;;39.86;23.97;90805.16;5012414;28;20046;-70
2022/08/19 11:03:23;;;;;;;3.38;2.90;;;;;;;41.44;23.61;90810.22;5012207;28;20026;-70
2022/08/19 11:06:03;;;;;;;3.10;2.80;;;;;;;43.67;23.03;90810.94;5012095;28;20100;-70
2022/08/19 11:08:30;;;;;;;3.28;2.97;;;;;;;44.11;22.01;90809.88;5012424;28;20455;-70
2022/08/19 11:11:00;;;;;;;2.83;2.60;;;;;;;43.14;23.71;90808.22;5012364;28;20044;-70
2022/08/19 11:13:37;;;;;;;3.22;2.92;;;;;;;43.66;22.18;90812.22;5012202;28;20083;-71
2022/08/19 11:16:09;;;;;;;2.85;2.60;;;;;;;44.09;22.18;90804.81;5012091;28;20037;-70
2022/08/19 11:18:37;;;;;;;3.47;2.85;;;;;;;43.74;22.10;90807.63;5012242;28;20096;-70
2022/08/19 11:21:08;;;;;;;7.68;3.53;;;;;;;43.93;22.36;90805.69;5012025;28;20038;-70
2022/08/19 11:23:34;;;;;;;3.22;2.60;;;;;;;43.91;21.62;90802.66;5011869;28;20032;-71
2022/08/19 11:26:01;;;;;;;3.22;2.67;;;;;;;44.25;21.38;90803.13;5012182;28;20041;-70
2022/08/19 11:28:26;;;;;;;2.92;2.60;;;;;;;45.21;21.36;90800.78;5011890;28;20403;-71
2022/08/19 11:30:52;;;;;;;3.30;3.00;;;;;;;43.30;22.28;90790.56;5011897;28;20041;-70
2022/08/19 11:33:17;;;;;;;2.80;2.60;;;;;;;41.66;24.58;90801.91;5011680;28;20030;-70
2022/08/19 11:35:43;;;;;;;3.20;2.88;;;;;;;43.11;23.30;90791.69;5011779;28;20053;-70
2022/08/19 11:38:08;;;;;;;3.45;2.92;;;;;;;42.18;24.18;90790.19;5011743;28;20456;-70
2022/08/19 11:40:34;;;;;;;3.38;2.70;;;;;;;43.04;23.38;90785.34;5011757;28;20044;-70
2022/08/19 11:42:59;;;;;;;4.20;2.63;;;;;;;43.98;22.77;90785.25;5011646;28;20030;-70
2022/08/19 11:45:26;;;;;;;4.15;2.92;;;;;;;44.37;21.95;90782.09;5011095;28;20045;-71
2022/08/19 11:47:52;;;;;;;5.05;4.45;;;;;;;43.97;22.16;90778.13;5011879;28;20054;-71
2022/08/19 11:50:19;;;;;;;3.85;3.55;;;;;;;41.27;23.90;90782.28;5011602;28;20539;-70
2022/08/19 11:52:45;;;;;;;10.63;8.45;;;;;;;42.07;24.31;90784.59;5011526;28;20026;-70